sensor_id;sensor_type;location;lat;lon;timestamp;P1;durP1;ratioP1;P2;durP2;ratioP2
49592;SDS011;35499;51.482;4.264;2023-07-31T00:00:03;14.37;;;3.83;;
49592;SDS011;35499;51.482;4.264;2023-07-31T00:02:29;13.32;;;3.60;;
49592;SDS011;35499;51.482;4.264;2023-07-31T00:04:54;16.50;;;3.17;;
49592;SDS011;35499;51.482;4.264;2023-07-31T00:07:19;9.93;;;2.60;;
49592;SDS011;35499;51.482;4.264;2023-07-31T00:09:45;12.93;;;3.37;;
49592;SDS011;35499;51.482;4.264;2023-07-31T00:12:10;9.50;;;2.73;;
49592;SDS011;35499;51.482;4.264;2023-07-31T00:14:35;14.43;;;2.90;;
49592;SDS011;35499;51.482;4.264;2023-07-31T00:17:01;12.97;;;3.23;;
49592;SDS011;35499;51.482;4.264;2023-07-31T00:19:26;13.40;;;2.95;;
49592;SDS011;35499;51.482;4.264;2023-07-31T00:21:51;13.23;;;3.33;;
49592;SDS011;35499;51.482;4.264;2023-07-31T00:24:16;12.83;;;3.13;;
49592;SDS011;35499;51.482;4.264;2023-07-31T00:26:42;14.50;;;3.50;;
49592;SDS011;35499;51.482;4.264;2023-07-31T00:29:07;19.73;;;3.60;;
49592;SDS011;35499;51.482;4.264;2023-07-31T00:31:32;19.30;;;3.85;;
49592;SDS011;35499;51.482;4.264;2023-07-31T00:33:57;9.50;;;3.03;;
49592;SDS011;35499;51.482;4.264;2023-07-31T00:36:23;12.63;;;3.43;;
49592;SDS011;35499;51.482;4.264;2023-07-31T00:38:51;14.53;;;3.33;;
49592;SDS011;35499;51.482;4.264;2023-07-31T00:41:16;16.63;;;5.22;;
49592;SDS011;35499;51.482;4.264;2023-07-31T00:43:42;14.57;;;3.00;;
49592;SDS011;35499;51.482;4.264;2023-07-31T00:46:07;14.57;;;3.47;;
49592;SDS011;35499;51.482;4.264;2023-07-31T00:48:33;14.32;;;3.78;;
49592;SDS011;35499;51.482;4.264;2023-07-31T00:50:59;10.45;;;3.08;;
49592;SDS011;35499;51.482;4.264;2023-07-31T00:53:26;10.80;;;3.08;;
49592;SDS011;35499;51.482;4.264;2023-07-31T00:55:52;14.70;;;2.75;;
49592;SDS011;35499;51.482;4.264;2023-07-31T00:58:18;14.88;;;3.83;;
49592;SDS011;35499;51.482;4.264;2023-07-31T01:00:43;15.10;;;4.07;;
49592;SDS011;35499;51.482;4.264;2023-07-31T01:03:09;16.92;;;4.10;;
49592;SDS011;35499;51.482;4.264;2023-07-31T01:05:56;15.93;;;3.50;;
49592;SDS011;35499;51.482;4.264;2023-07-31T01:08:42;15.18;;;3.50;;
49592;SDS011;35499;51.482;4.264;2023-07-31T01:11:17;12.18;;;3.53;;
49592;SDS011;35499;51.482;4.264;2023-07-31T01:13:46;12.80;;;3.47;;
49592;SDS011;35499;51.482;4.264;2023-07-31T01:16:12;12.95;;;3.63;;
49592;SDS011;35499;51.482;4.264;2023-07-31T01:18:37;16.67;;;3.23;;
49592;SDS011;35499;51.482;4.264;2023-07-31T01:21:18;13.80;;;2.77;;
49592;SDS011;35499;51.482;4.264;2023-07-31T01:24:12;12.85;;;4.25;;
49592;SDS011;35499;51.482;4.264;2023-07-31T01:26:47;14.27;;;4.72;;
49592;SDS011;35499;51.482;4.264;2023-07-31T01:29:23;12.88;;;3.42;;
49592;SDS011;35499;51.482;4.264;2023-07-31T01:31:55;12.57;;;3.95;;
49592;SDS011;35499;51.482;4.264;2023-07-31T01:34:22;14.18;;;3.92;;
49592;SDS011;35499;51.482;4.264;2023-07-31T01:36:48;20.00;;;4.82;;
49592;SDS011;35499;51.482;4.264;2023-07-31T01:39:13;13.03;;;3.87;;
49592;SDS011;35499;51.482;4.264;2023-07-31T01:44:05;13.53;;;3.40;;
49592;SDS011;35499;51.482;4.264;2023-07-31T01:46:31;14.48;;;3.75;;
49592;SDS011;35499;51.482;4.264;2023-07-31T01:48:56;14.43;;;2.87;;
49592;SDS011;35499;51.482;4.264;2023-07-31T01:51:22;12.95;;;3.78;;
49592;SDS011;35499;51.482;4.264;2023-07-31T01:53:47;9.70;;;2.63;;
49592;SDS011;35499;51.482;4.264;2023-07-31T01:56:12;9.23;;;2.77;;
49592;SDS011;35499;51.482;4.264;2023-07-31T01:58:38;12.67;;;3.30;;
49592;SDS011;35499;51.482;4.264;2023-07-31T02:01:03;25.40;;;6.13;;
49592;SDS011;35499;51.482;4.264;2023-07-31T02:03:28;15.23;;;3.80;;
49592;SDS011;35499;51.482;4.264;2023-07-31T02:05:53;11.20;;;2.97;;
49592;SDS011;35499;51.482;4.264;2023-07-31T02:08:19;12.65;;;3.60;;
49592;SDS011;35499;51.482;4.264;2023-07-31T02:10:44;19.40;;;3.67;;
49592;SDS011;35499;51.482;4.264;2023-07-31T02:13:09;12.43;;;3.97;;
49592;SDS011;35499;51.482;4.264;2023-07-31T02:15:35;16.38;;;3.92;;
49592;SDS011;35499;51.482;4.264;2023-07-31T02:18:01;17.00;;;4.45;;
49592;SDS011;35499;51.482;4.264;2023-07-31T02:20:26;11.70;;;3.97;;
49592;SDS011;35499;51.482;4.264;2023-07-31T02:22:52;11.83;;;3.40;;
49592;SDS011;35499;51.482;4.264;2023-07-31T02:25:17;14.43;;;3.47;;
49592;SDS011;35499;51.482;4.264;2023-07-31T02:27:42;15.57;;;4.23;;
49592;SDS011;35499;51.482;4.264;2023-07-31T02:30:08;12.57;;;3.67;;
49592;SDS011;35499;51.482;4.264;2023-07-31T02:32:34;15.95;;;3.75;;
49592;SDS011;35499;51.482;4.264;2023-07-31T02:34:59;15.60;;;2.93;;
49592;SDS011;35499;51.482;4.264;2023-07-31T02:37:24;12.77;;;3.37;;
49592;SDS011;35499;51.482;4.264;2023-07-31T02:39:50;9.45;;;2.80;;
49592;SDS011;35499;51.482;4.264;2023-07-31T02:42:16;15.07;;;3.72;;
49592;SDS011;35499;51.482;4.264;2023-07-31T02:44:41;21.40;;;3.50;;
49592;SDS011;35499;51.482;4.264;2023-07-31T02:47:06;15.17;;;3.73;;
49592;SDS011;35499;51.482;4.264;2023-07-31T02:49:32;14.40;;;4.00;;
49592;SDS011;35499;51.482;4.264;2023-07-31T02:51:57;12.43;;;3.10;;
49592;SDS011;35499;51.482;4.264;2023-07-31T02:54:22;9.82;;;3.42;;
49592;SDS011;35499;51.482;4.264;2023-07-31T02:56:48;12.75;;;3.63;;
49592;SDS011;35499;51.482;4.264;2023-07-31T02:59:14;10.95;;;3.58;;
49592;SDS011;35499;51.482;4.264;2023-07-31T03:01:39;15.00;;;4.28;;
49592;SDS011;35499;51.482;4.264;2023-07-31T03:04:04;16.67;;;3.33;;
49592;SDS011;35499;51.482;4.264;2023-07-31T03:06:30;15.70;;;3.45;;
49592;SDS011;35499;51.482;4.264;2023-07-31T03:08:55;12.65;;;3.03;;
49592;SDS011;35499;51.482;4.264;2023-07-31T03:11:21;15.07;;;4.30;;
49592;SDS011;35499;51.482;4.264;2023-07-31T03:13:46;12.40;;;3.17;;
49592;SDS011;35499;51.482;4.264;2023-07-31T03:16:11;8.83;;;2.57;;
49592;SDS011;35499;51.482;4.264;2023-07-31T03:18:36;11.73;;;3.37;;
49592;SDS011;35499;51.482;4.264;2023-07-31T03:21:02;16.77;;;4.70;;
49592;SDS011;35499;51.482;4.264;2023-07-31T03:23:27;14.73;;;3.27;;
49592;SDS011;35499;51.482;4.264;2023-07-31T03:25:56;16.27;;;3.83;;
49592;SDS011;35499;51.482;4.264;2023-07-31T03:28:26;15.15;;;4.05;;
49592;SDS011;35499;51.482;4.264;2023-07-31T03:30:51;7.95;;;2.88;;
49592;SDS011;35499;51.482;4.264;2023-07-31T03:33:17;10.40;;;3.47;;
49592;SDS011;35499;51.482;4.264;2023-07-31T03:35:42;10.57;;;3.60;;
49592;SDS011;35499;51.482;4.264;2023-07-31T03:38:08;13.38;;;3.40;;
49592;SDS011;35499;51.482;4.264;2023-07-31T03:40:33;16.58;;;3.80;;
49592;SDS011;35499;51.482;4.264;2023-07-31T03:42:59;13.63;;;4.20;;
49592;SDS011;35499;51.482;4.264;2023-07-31T03:45:24;12.95;;;2.78;;
49592;SDS011;35499;51.482;4.264;2023-07-31T03:47:49;11.82;;;3.20;;
49592;SDS011;35499;51.482;4.264;2023-07-31T03:50:15;10.73;;;2.43;;
49592;SDS011;35499;51.482;4.264;2023-07-31T03:52:41;11.70;;;2.95;;
49592;SDS011;35499;51.482;4.264;2023-07-31T03:55:06;11.80;;;2.90;;
49592;SDS011;35499;51.482;4.264;2023-07-31T03:57:32;10.35;;;2.60;;
49592;SDS011;35499;51.482;4.264;2023-07-31T03:59:57;13.60;;;2.50;;
49592;SDS011;35499;51.482;4.264;2023-07-31T04:02:23;8.95;;;2.67;;
49592;SDS011;35499;51.482;4.264;2023-07-31T04:04:48;9.15;;;2.40;;
49592;SDS011;35499;51.482;4.264;2023-07-31T04:07:13;11.80;;;2.70;;
49592;SDS011;35499;51.482;4.264;2023-07-31T04:09:39;14.43;;;2.93;;
49592;SDS011;35499;51.482;4.264;2023-07-31T04:12:04;10.00;;;2.30;;
49592;SDS011;35499;51.482;4.264;2023-07-31T04:14:29;10.90;;;3.03;;
49592;SDS011;35499;51.482;4.264;2023-07-31T04:16:55;7.73;;;2.03;;
49592;SDS011;35499;51.482;4.264;2023-07-31T04:19:20;7.40;;;2.57;;
49592;SDS011;35499;51.482;4.264;2023-07-31T04:21:45;13.23;;;3.60;;
49592;SDS011;35499;51.482;4.264;2023-07-31T04:24:10;11.03;;;3.47;;
49592;SDS011;35499;51.482;4.264;2023-07-31T04:26:36;14.67;;;3.37;;
49592;SDS011;35499;51.482;4.264;2023-07-31T04:29:01;10.33;;;3.80;;
49592;SDS011;35499;51.482;4.264;2023-07-31T04:31:26;11.77;;;3.40;;
49592;SDS011;35499;51.482;4.264;2023-07-31T04:33:51;12.93;;;3.67;;
49592;SDS011;35499;51.482;4.264;2023-07-31T04:36:17;10.50;;;2.77;;
49592;SDS011;35499;51.482;4.264;2023-07-31T04:38:42;13.37;;;3.03;;
49592;SDS011;35499;51.482;4.264;2023-07-31T04:41:07;10.23;;;2.57;;
49592;SDS011;35499;51.482;4.264;2023-07-31T04:43:32;14.10;;;3.57;;
49592;SDS011;35499;51.482;4.264;2023-07-31T04:45:58;17.60;;;4.10;;
49592;SDS011;35499;51.482;4.264;2023-07-31T04:48:23;14.10;;;3.60;;
49592;SDS011;35499;51.482;4.264;2023-07-31T04:50:49;8.33;;;3.03;;
49592;SDS011;35499;51.482;4.264;2023-07-31T04:53:14;11.55;;;4.00;;
49592;SDS011;35499;51.482;4.264;2023-07-31T04:55:39;11.03;;;3.63;;
49592;SDS011;35499;51.482;4.264;2023-07-31T04:58:04;11.60;;;3.77;;
49592;SDS011;35499;51.482;4.264;2023-07-31T05:00:30;10.10;;;3.60;;
49592;SDS011;35499;51.482;4.264;2023-07-31T05:02:55;13.87;;;4.80;;
49592;SDS011;35499;51.482;4.264;2023-07-31T05:05:20;12.30;;;3.97;;
49592;SDS011;35499;51.482;4.264;2023-07-31T05:07:46;11.30;;;3.60;;
49592;SDS011;35499;51.482;4.264;2023-07-31T05:10:11;13.82;;;3.35;;
49592;SDS011;35499;51.482;4.264;2023-07-31T05:12:36;18.13;;;4.40;;
49592;SDS011;35499;51.482;4.264;2023-07-31T05:15:02;9.47;;;3.80;;
49592;SDS011;35499;51.482;4.264;2023-07-31T05:17:28;8.48;;;3.03;;
49592;SDS011;35499;51.482;4.264;2023-07-31T05:19:54;14.38;;;4.15;;
49592;SDS011;35499;51.482;4.264;2023-07-31T05:22:19;11.77;;;4.00;;
49592;SDS011;35499;51.482;4.264;2023-07-31T05:24:44;9.57;;;3.20;;
49592;SDS011;35499;51.482;4.264;2023-07-31T05:27:10;13.53;;;4.47;;
49592;SDS011;35499;51.482;4.264;2023-07-31T05:29:35;9.97;;;3.97;;
49592;SDS011;35499;51.482;4.264;2023-07-31T05:32:00;10.18;;;4.95;;
49592;SDS011;35499;51.482;4.264;2023-07-31T05:34:26;14.25;;;4.43;;
49592;SDS011;35499;51.482;4.264;2023-07-31T05:36:51;14.57;;;5.20;;
49592;SDS011;35499;51.482;4.264;2023-07-31T05:39:17;13.85;;;4.35;;
49592;SDS011;35499;51.482;4.264;2023-07-31T05:41:44;14.82;;;5.90;;
49592;SDS011;35499;51.482;4.264;2023-07-31T05:44:10;23.42;;;6.13;;
49592;SDS011;35499;51.482;4.264;2023-07-31T05:46:35;10.03;;;4.70;;
49592;SDS011;35499;51.482;4.264;2023-07-31T05:49:00;7.60;;;4.00;;
49592;SDS011;35499;51.482;4.264;2023-07-31T05:51:26;14.90;;;4.20;;
49592;SDS011;35499;51.482;4.264;2023-07-31T05:53:51;8.00;;;2.92;;
49592;SDS011;35499;51.482;4.264;2023-07-31T05:56:16;14.27;;;5.07;;
49592;SDS011;35499;51.482;4.264;2023-07-31T05:58:42;10.70;;;3.70;;
49592;SDS011;35499;51.482;4.264;2023-07-31T06:01:07;11.70;;;3.43;;
49592;SDS011;35499;51.482;4.264;2023-07-31T06:03:32;10.37;;;3.50;;
49592;SDS011;35499;51.482;4.264;2023-07-31T06:05:57;6.27;;;2.57;;
49592;SDS011;35499;51.482;4.264;2023-07-31T06:08:23;9.17;;;2.87;;
49592;SDS011;35499;51.482;4.264;2023-07-31T06:10:48;6.67;;;2.33;;
49592;SDS011;35499;51.482;4.264;2023-07-31T06:13:13;15.65;;;4.03;;
49592;SDS011;35499;51.482;4.264;2023-07-31T06:15:39;17.60;;;4.13;;
49592;SDS011;35499;51.482;4.264;2023-07-31T06:18:04;12.25;;;3.90;;
49592;SDS011;35499;51.482;4.264;2023-07-31T06:20:32;10.60;;;3.80;;
49592;SDS011;35499;51.482;4.264;2023-07-31T06:22:59;9.05;;;3.75;;
49592;SDS011;35499;51.482;4.264;2023-07-31T06:25:24;11.23;;;3.87;;
49592;SDS011;35499;51.482;4.264;2023-07-31T06:27:49;12.50;;;4.17;;
49592;SDS011;35499;51.482;4.264;2023-07-31T06:30:14;10.13;;;3.93;;
49592;SDS011;35499;51.482;4.264;2023-07-31T06:32:40;7.63;;;3.63;;
49592;SDS011;35499;51.482;4.264;2023-07-31T06:35:08;9.07;;;3.92;;
49592;SDS011;35499;51.482;4.264;2023-07-31T06:37:33;9.93;;;3.63;;
49592;SDS011;35499;51.482;4.264;2023-07-31T06:39:58;8.70;;;4.20;;
49592;SDS011;35499;51.482;4.264;2023-07-31T06:42:24;7.57;;;2.83;;
49592;SDS011;35499;51.482;4.264;2023-07-31T06:44:49;6.60;;;3.00;;
49592;SDS011;35499;51.482;4.264;2023-07-31T06:47:15;9.95;;;4.25;;
49592;SDS011;35499;51.482;4.264;2023-07-31T06:49:40;9.43;;;4.20;;
49592;SDS011;35499;51.482;4.264;2023-07-31T06:52:05;10.07;;;4.73;;
49592;SDS011;35499;51.482;4.264;2023-07-31T06:54:31;8.32;;;4.63;;
49592;SDS011;35499;51.482;4.264;2023-07-31T06:56:56;9.23;;;4.60;;
49592;SDS011;35499;51.482;4.264;2023-07-31T06:59:22;10.20;;;4.70;;
49592;SDS011;35499;51.482;4.264;2023-07-31T07:01:47;10.48;;;5.05;;
49592;SDS011;35499;51.482;4.264;2023-07-31T07:04:13;8.77;;;5.13;;
49592;SDS011;35499;51.482;4.264;2023-07-31T07:06:38;12.07;;;4.95;;
49592;SDS011;35499;51.482;4.264;2023-07-31T07:09:04;9.80;;;4.20;;
49592;SDS011;35499;51.482;4.264;2023-07-31T07:11:29;8.90;;;4.18;;
49592;SDS011;35499;51.482;4.264;2023-07-31T07:13:54;9.10;;;4.47;;
49592;SDS011;35499;51.482;4.264;2023-07-31T07:16:20;9.02;;;4.68;;
49592;SDS011;35499;51.482;4.264;2023-07-31T07:18:45;9.70;;;4.68;;
49592;SDS011;35499;51.482;4.264;2023-07-31T07:21:10;9.07;;;4.00;;
49592;SDS011;35499;51.482;4.264;2023-07-31T07:23:40;12.13;;;4.35;;
49592;SDS011;35499;51.482;4.264;2023-07-31T07:26:05;13.93;;;5.97;;
49592;SDS011;35499;51.482;4.264;2023-07-31T07:28:31;10.50;;;3.47;;
49592;SDS011;35499;51.482;4.264;2023-07-31T07:30:56;9.87;;;3.80;;
49592;SDS011;35499;51.482;4.264;2023-07-31T07:33:22;9.38;;;3.28;;
49592;SDS011;35499;51.482;4.264;2023-07-31T07:35:47;8.73;;;3.53;;
49592;SDS011;35499;51.482;4.264;2023-07-31T07:38:16;14.93;;;4.33;;
49592;SDS011;35499;51.482;4.264;2023-07-31T07:40:41;7.30;;;3.20;;
49592;SDS011;35499;51.482;4.264;2023-07-31T07:43:06;8.43;;;3.15;;
49592;SDS011;35499;51.482;4.264;2023-07-31T07:45:32;9.85;;;2.92;;
49592;SDS011;35499;51.482;4.264;2023-07-31T07:47:58;5.73;;;2.70;;
49592;SDS011;35499;51.482;4.264;2023-07-31T07:50:24;7.90;;;2.78;;
49592;SDS011;35499;51.482;4.264;2023-07-31T07:52:49;7.05;;;2.53;;
49592;SDS011;35499;51.482;4.264;2023-07-31T07:55:15;6.20;;;2.73;;
49592;SDS011;35499;51.482;4.264;2023-07-31T07:57:40;9.13;;;2.58;;
49592;SDS011;35499;51.482;4.264;2023-07-31T08:00:05;6.60;;;2.87;;
49592;SDS011;35499;51.482;4.264;2023-07-31T08:02:31;5.65;;;2.25;;
49592;SDS011;35499;51.482;4.264;2023-07-31T08:04:56;10.97;;;2.77;;
49592;SDS011;35499;51.482;4.264;2023-07-31T08:07:22;7.95;;;2.53;;
49592;SDS011;35499;51.482;4.264;2023-07-31T08:09:47;9.18;;;2.58;;
49592;SDS011;35499;51.482;4.264;2023-07-31T08:12:13;4.87;;;2.37;;
49592;SDS011;35499;51.482;4.264;2023-07-31T08:14:38;7.32;;;2.70;;
49592;SDS011;35499;51.482;4.264;2023-07-31T08:17:03;4.60;;;2.00;;
49592;SDS011;35499;51.482;4.264;2023-07-31T08:19:29;5.80;;;2.13;;
49592;SDS011;35499;51.482;4.264;2023-07-31T08:21:54;5.67;;;2.33;;
49592;SDS011;35499;51.482;4.264;2023-07-31T08:24:20;6.65;;;2.70;;
49592;SDS011;35499;51.482;4.264;2023-07-31T08:26:45;6.90;;;2.20;;
49592;SDS011;35499;51.482;4.264;2023-07-31T08:29:10;5.20;;;1.70;;
49592;SDS011;35499;51.482;4.264;2023-07-31T08:31:36;4.20;;;1.75;;
49592;SDS011;35499;51.482;4.264;2023-07-31T08:34:01;5.13;;;1.80;;
49592;SDS011;35499;51.482;4.264;2023-07-31T08:36:26;5.67;;;1.33;;
49592;SDS011;35499;51.482;4.264;2023-07-31T08:38:52;5.28;;;1.73;;
49592;SDS011;35499;51.482;4.264;2023-07-31T08:41:17;6.15;;;1.95;;
49592;SDS011;35499;51.482;4.264;2023-07-31T08:43:43;5.43;;;1.48;;
49592;SDS011;35499;51.482;4.264;2023-07-31T08:46:12;3.05;;;1.55;;
49592;SDS011;35499;51.482;4.264;2023-07-31T08:48:39;5.05;;;1.23;;
49592;SDS011;35499;51.482;4.264;2023-07-31T08:51:07;4.78;;;1.40;;
49592;SDS011;35499;51.482;4.264;2023-07-31T08:53:32;3.50;;;1.38;;
49592;SDS011;35499;51.482;4.264;2023-07-31T08:55:58;3.08;;;1.35;;
49592;SDS011;35499;51.482;4.264;2023-07-31T08:58:24;6.30;;;1.58;;
49592;SDS011;35499;51.482;4.264;2023-07-31T09:04:30;3.15;;;1.23;;
49592;SDS011;35499;51.482;4.264;2023-07-31T09:06:57;5.43;;;1.58;;
49592;SDS011;35499;51.482;4.264;2023-07-31T09:09:25;7.13;;;1.77;;
49592;SDS011;35499;51.482;4.264;2023-07-31T09:11:51;7.35;;;1.83;;
49592;SDS011;35499;51.482;4.264;2023-07-31T09:14:17;5.80;;;1.30;;
49592;SDS011;35499;51.482;4.264;2023-07-31T09:16:53;5.22;;;1.63;;
49592;SDS011;35499;51.482;4.264;2023-07-31T09:19:34;4.60;;;1.90;;
49592;SDS011;35499;51.482;4.264;2023-07-31T09:22:02;3.60;;;1.40;;
49592;SDS011;35499;51.482;4.264;2023-07-31T09:24:29;3.95;;;1.70;;
49592;SDS011;35499;51.482;4.264;2023-07-31T09:26:56;4.22;;;1.30;;
49592;SDS011;35499;51.482;4.264;2023-07-31T09:29:23;4.03;;;1.42;;
49592;SDS011;35499;51.482;4.264;2023-07-31T09:31:49;5.75;;;1.45;;
49592;SDS011;35499;51.482;4.264;2023-07-31T09:34:15;3.72;;;1.70;;
49592;SDS011;35499;51.482;4.264;2023-07-31T09:36:50;4.35;;;1.23;;
49592;SDS011;35499;51.482;4.264;2023-07-31T09:39:16;4.53;;;2.85;;
49592;SDS011;35499;51.482;4.264;2023-07-31T09:41:53;3.00;;;1.40;;
49592;SDS011;35499;51.482;4.264;2023-07-31T09:44:19;2.90;;;1.08;;
49592;SDS011;35499;51.482;4.264;2023-07-31T09:46:45;3.50;;;1.20;;
49592;SDS011;35499;51.482;4.264;2023-07-31T09:49:11;2.40;;;0.98;;
49592;SDS011;35499;51.482;4.264;2023-07-31T09:54:13;2.97;;;1.38;;
49592;SDS011;35499;51.482;4.264;2023-07-31T09:56:49;5.10;;;1.55;;
49592;SDS011;35499;51.482;4.264;2023-07-31T09:59:15;4.75;;;2.00;;
49592;SDS011;35499;51.482;4.264;2023-07-31T10:01:43;5.53;;;1.48;;
49592;SDS011;35499;51.482;4.264;2023-07-31T10:04:11;2.95;;;1.30;;
49592;SDS011;35499;51.482;4.264;2023-07-31T10:06:37;3.75;;;1.52;;
49592;SDS011;35499;51.482;4.264;2023-07-31T10:09:07;4.80;;;1.30;;
49592;SDS011;35499;51.482;4.264;2023-07-31T10:11:46;3.83;;;1.40;;
49592;SDS011;35499;51.482;4.264;2023-07-31T10:14:20;3.88;;;1.73;;
49592;SDS011;35499;51.482;4.264;2023-07-31T10:16:45;3.60;;;1.60;;
49592;SDS011;35499;51.482;4.264;2023-07-31T10:19:12;5.50;;;1.73;;
49592;SDS011;35499;51.482;4.264;2023-07-31T10:21:37;3.20;;;1.23;;
49592;SDS011;35499;51.482;4.264;2023-07-31T10:24:05;3.63;;;1.25;;
49592;SDS011;35499;51.482;4.264;2023-07-31T10:26:31;2.05;;;1.00;;
49592;SDS011;35499;51.482;4.264;2023-07-31T10:28:58;3.63;;;1.20;;
49592;SDS011;35499;51.482;4.264;2023-07-31T10:31:24;3.58;;;1.10;;
49592;SDS011;35499;51.482;4.264;2023-07-31T10:33:51;3.80;;;1.30;;
49592;SDS011;35499;51.482;4.264;2023-07-31T10:36:18;4.68;;;1.58;;
49592;SDS011;35499;51.482;4.264;2023-07-31T10:38:44;4.90;;;1.90;;
49592;SDS011;35499;51.482;4.264;2023-07-31T10:41:10;2.50;;;1.23;;
49592;SDS011;35499;51.482;4.264;2023-07-31T10:43:36;3.00;;;1.38;;
49592;SDS011;35499;51.482;4.264;2023-07-31T10:46:09;3.28;;;1.20;;
49592;SDS011;35499;51.482;4.264;2023-07-31T10:48:38;2.53;;;1.15;;
49592;SDS011;35499;51.482;4.264;2023-07-31T10:51:09;2.90;;;1.52;;
49592;SDS011;35499;51.482;4.264;2023-07-31T10:53:38;3.85;;;1.48;;
49592;SDS011;35499;51.482;4.264;2023-07-31T10:56:06;2.67;;;1.30;;
49592;SDS011;35499;51.482;4.264;2023-07-31T10:58:33;5.70;;;1.75;;
49592;SDS011;35499;51.482;4.264;2023-07-31T11:01:00;4.35;;;2.17;;
49592;SDS011;35499;51.482;4.264;2023-07-31T11:06:13;3.28;;;1.58;;
49592;SDS011;35499;51.482;4.264;2023-07-31T11:08:43;4.10;;;1.58;;
49592;SDS011;35499;51.482;4.264;2023-07-31T11:11:13;3.95;;;1.65;;
49592;SDS011;35499;51.482;4.264;2023-07-31T11:16:12;5.28;;;2.13;;
49592;SDS011;35499;51.482;4.264;2023-07-31T11:18:39;4.47;;;1.30;;
49592;SDS011;35499;51.482;4.264;2023-07-31T11:21:06;4.20;;;1.95;;
49592;SDS011;35499;51.482;4.264;2023-07-31T11:23:31;3.78;;;1.50;;
49592;SDS011;35499;51.482;4.264;2023-07-31T11:26:00;4.05;;;1.65;;
49592;SDS011;35499;51.482;4.264;2023-07-31T11:28:25;4.20;;;1.70;;
49592;SDS011;35499;51.482;4.264;2023-07-31T11:30:51;3.90;;;1.53;;
49592;SDS011;35499;51.482;4.264;2023-07-31T11:33:16;3.15;;;1.40;;
49592;SDS011;35499;51.482;4.264;2023-07-31T11:35:43;4.60;;;1.50;;
49592;SDS011;35499;51.482;4.264;2023-07-31T11:38:11;3.17;;;1.40;;
49592;SDS011;35499;51.482;4.264;2023-07-31T11:40:48;4.43;;;1.30;;
49592;SDS011;35499;51.482;4.264;2023-07-31T11:43:13;4.93;;;1.80;;
49592;SDS011;35499;51.482;4.264;2023-07-31T11:45:42;4.60;;;1.58;;
49592;SDS011;35499;51.482;4.264;2023-07-31T11:48:17;3.25;;;1.35;;
49592;SDS011;35499;51.482;4.264;2023-07-31T11:50:43;4.60;;;1.70;;
49592;SDS011;35499;51.482;4.264;2023-07-31T11:53:11;7.03;;;2.65;;
49592;SDS011;35499;51.482;4.264;2023-07-31T11:55:37;6.75;;;1.83;;
49592;SDS011;35499;51.482;4.264;2023-07-31T11:58:03;5.35;;;2.38;;
49592;SDS011;35499;51.482;4.264;2023-07-31T12:00:28;6.40;;;2.20;;
49592;SDS011;35499;51.482;4.264;2023-07-31T12:02:54;4.47;;;2.17;;
49592;SDS011;35499;51.482;4.264;2023-07-31T12:05:19;5.53;;;2.05;;
49592;SDS011;35499;51.482;4.264;2023-07-31T12:07:51;7.38;;;3.00;;
49592;SDS011;35499;51.482;4.264;2023-07-31T12:13:08;6.82;;;3.03;;
49592;SDS011;35499;51.482;4.264;2023-07-31T12:15:41;7.80;;;3.15;;
49592;SDS011;35499;51.482;4.264;2023-07-31T12:18:12;6.90;;;3.17;;
49592;SDS011;35499;51.482;4.264;2023-07-31T12:20:45;7.57;;;2.83;;
49592;SDS011;35499;51.482;4.264;2023-07-31T12:23:13;7.85;;;3.08;;
49592;SDS011;35499;51.482;4.264;2023-07-31T12:26:13;7.65;;;3.00;;
49592;SDS011;35499;51.482;4.264;2023-07-31T12:31:09;5.30;;;2.88;;
49592;SDS011;35499;51.482;4.264;2023-07-31T12:33:40;6.40;;;3.50;;
49592;SDS011;35499;51.482;4.264;2023-07-31T12:36:07;6.15;;;2.95;;
49592;SDS011;35499;51.482;4.264;2023-07-31T12:38:44;5.55;;;2.50;;
49592;SDS011;35499;51.482;4.264;2023-07-31T12:41:09;8.68;;;3.08;;
49592;SDS011;35499;51.482;4.264;2023-07-31T12:43:36;9.40;;;3.42;;
49592;SDS011;35499;51.482;4.264;2023-07-31T12:46:02;7.03;;;2.67;;
49592;SDS011;35499;51.482;4.264;2023-07-31T12:48:28;5.50;;;2.47;;
49592;SDS011;35499;51.482;4.264;2023-07-31T12:50:53;4.88;;;2.30;;
49592;SDS011;35499;51.482;4.264;2023-07-31T12:53:19;7.93;;;3.40;;
49592;SDS011;35499;51.482;4.264;2023-07-31T12:55:44;8.20;;;2.93;;
49592;SDS011;35499;51.482;4.264;2023-07-31T12:58:09;5.45;;;3.33;;
49592;SDS011;35499;51.482;4.264;2023-07-31T13:00:35;9.50;;;3.17;;
49592;SDS011;35499;51.482;4.264;2023-07-31T13:03:00;7.60;;;2.73;;
49592;SDS011;35499;51.482;4.264;2023-07-31T13:05:26;8.85;;;3.70;;
49592;SDS011;35499;51.482;4.264;2023-07-31T13:07:52;6.93;;;3.72;;
49592;SDS011;35499;51.482;4.264;2023-07-31T13:10:17;7.65;;;3.00;;
49592;SDS011;35499;51.482;4.264;2023-07-31T13:12:43;8.50;;;4.63;;
49592;SDS011;35499;51.482;4.264;2023-07-31T13:15:08;7.17;;;2.77;;
49592;SDS011;35499;51.482;4.264;2023-07-31T13:17:34;8.05;;;3.50;;
49592;SDS011;35499;51.482;4.264;2023-07-31T13:20:00;7.95;;;3.50;;
49592;SDS011;35499;51.482;4.264;2023-07-31T13:22:25;6.72;;;3.15;;
49592;SDS011;35499;51.482;4.264;2023-07-31T13:24:51;7.00;;;3.15;;
49592;SDS011;35499;51.482;4.264;2023-07-31T13:27:16;6.73;;;3.33;;
49592;SDS011;35499;51.482;4.264;2023-07-31T13:29:44;8.23;;;3.83;;
49592;SDS011;35499;51.482;4.264;2023-07-31T13:32:09;8.27;;;3.40;;
49592;SDS011;35499;51.482;4.264;2023-07-31T13:34:34;9.27;;;3.57;;
49592;SDS011;35499;51.482;4.264;2023-07-31T13:37:00;7.37;;;2.87;;
49592;SDS011;35499;51.482;4.264;2023-07-31T13:39:25;9.40;;;3.30;;
49592;SDS011;35499;51.482;4.264;2023-07-31T13:41:50;6.77;;;3.23;;
49592;SDS011;35499;51.482;4.264;2023-07-31T13:44:16;7.43;;;3.03;;
49592;SDS011;35499;51.482;4.264;2023-07-31T13:46:41;7.83;;;3.23;;
49592;SDS011;35499;51.482;4.264;2023-07-31T13:49:06;6.33;;;3.10;;
49592;SDS011;35499;51.482;4.264;2023-07-31T13:51:31;6.67;;;2.60;;
49592;SDS011;35499;51.482;4.264;2023-07-31T13:53:57;8.90;;;2.75;;
49592;SDS011;35499;51.482;4.264;2023-07-31T13:56:22;6.70;;;3.30;;
49592;SDS011;35499;51.482;4.264;2023-07-31T13:58:47;7.00;;;2.70;;
49592;SDS011;35499;51.482;4.264;2023-07-31T14:01:13;5.73;;;2.70;;
49592;SDS011;35499;51.482;4.264;2023-07-31T14:03:38;8.13;;;2.50;;
49592;SDS011;35499;51.482;4.264;2023-07-31T14:06:03;6.70;;;2.30;;
49592;SDS011;35499;51.482;4.264;2023-07-31T14:08:29;7.13;;;1.55;;
49592;SDS011;35499;51.482;4.264;2023-07-31T14:10:54;5.65;;;2.25;;
49592;SDS011;35499;51.482;4.264;2023-07-31T14:13:20;3.92;;;1.88;;
49592;SDS011;35499;51.482;4.264;2023-07-31T14:15:45;7.43;;;1.50;;
49592;SDS011;35499;51.482;4.264;2023-07-31T14:18:10;5.10;;;2.60;;
49592;SDS011;35499;51.482;4.264;2023-07-31T14:20:35;3.67;;;1.77;;
49592;SDS011;35499;51.482;4.264;2023-07-31T14:23:04;5.37;;;1.80;;
49592;SDS011;35499;51.482;4.264;2023-07-31T14:25:29;3.85;;;2.13;;
49592;SDS011;35499;51.482;4.264;2023-07-31T14:27:54;3.58;;;1.40;;
49592;SDS011;35499;51.482;4.264;2023-07-31T14:30:20;3.78;;;0.90;;
49592;SDS011;35499;51.482;4.264;2023-07-31T14:32:45;1.55;;;0.70;;
49592;SDS011;35499;51.482;4.264;2023-07-31T14:35:11;4.53;;;1.45;;
49592;SDS011;35499;51.482;4.264;2023-07-31T14:37:40;3.17;;;0.85;;
49592;SDS011;35499;51.482;4.264;2023-07-31T14:40:08;3.35;;;1.00;;
49592;SDS011;35499;51.482;4.264;2023-07-31T14:42:35;2.30;;;0.82;;
49592;SDS011;35499;51.482;4.264;2023-07-31T14:45:01;1.85;;;0.50;;
49592;SDS011;35499;51.482;4.264;2023-07-31T14:47:27;2.40;;;0.63;;
49592;SDS011;35499;51.482;4.264;2023-07-31T14:49:52;1.63;;;0.40;;
49592;SDS011;35499;51.482;4.264;2023-07-31T14:52:18;2.15;;;0.57;;
49592;SDS011;35499;51.482;4.264;2023-07-31T14:54:43;1.00;;;0.37;;
49592;SDS011;35499;51.482;4.264;2023-07-31T14:57:08;2.70;;;0.63;;